createdAt,value
2022-08-17T00:00:34.834Z,6.55
2022-08-17T00:03:10.326Z,6.20
2022-08-17T00:05:42.792Z,6.70
2022-08-17T00:08:11.328Z,6.43
2022-08-17T00:10:40.329Z,6.32
2022-08-17T00:13:11.191Z,6.77
2022-08-17T00:15:39.767Z,6.05
2022-08-17T00:19:06.566Z,6.90
2022-08-17T00:20:59.084Z,6.63
2022-08-17T00:23:27.657Z,7.40
2022-08-17T00:25:56.114Z,6.80
2022-08-17T00:28:25.199Z,6.90
2022-08-17T00:30:54.621Z,6.60
2022-08-17T00:33:27.165Z,6.22
2022-08-17T00:35:56.146Z,7.53
2022-08-17T00:38:25.220Z,6.17
2022-08-17T00:40:59.159Z,6.17
2022-08-17T00:43:34.013Z,6.65
2022-08-17T00:46:05.772Z,6.28
2022-08-17T00:48:36.088Z,5.80
2022-08-17T00:51:17.340Z,7.70
2022-08-17T00:53:51.346Z,5.90
2022-08-17T00:56:28.183Z,5.73
2022-08-17T00:58:58.145Z,5.83
2022-08-17T01:01:26.548Z,6.87
2022-08-17T01:03:59.839Z,6.47
2022-08-17T01:06:29.345Z,6.75
2022-08-17T01:08:59.445Z,7.47
2022-08-17T01:11:28.137Z,6.10
2022-08-17T01:13:56.290Z,7.47
2022-08-17T01:16:26.718Z,7.50
2022-08-17T01:19:00.561Z,7.03
2022-08-17T01:21:34.276Z,6.30
2022-08-17T01:24:04.180Z,6.40
2022-08-17T01:26:34.351Z,7.03
2022-08-17T01:29:04.036Z,5.93
2022-08-17T01:31:37.020Z,7.13
2022-08-17T01:34:09.373Z,7.70
2022-08-17T01:36:38.692Z,6.37
2022-08-17T01:39:16.398Z,6.60
2022-08-17T01:41:46.714Z,7.15
2022-08-17T01:44:17.670Z,7.20
2022-08-17T01:46:45.991Z,7.32
2022-08-17T01:49:14.219Z,7.10
2022-08-17T01:51:42.471Z,7.00
2022-08-17T01:54:14.621Z,7.27
2022-08-17T01:56:47.160Z,6.90
2022-08-17T01:59:16.494Z,6.60
2022-08-17T02:01:45.358Z,7.33
2022-08-17T02:04:14.399Z,6.90
2022-08-17T02:06:52.522Z,6.68
2022-08-17T02:09:25.533Z,7.10
2022-08-17T02:11:54.795Z,6.87
2022-08-17T02:14:25.857Z,6.93
2022-08-17T02:16:54.856Z,7.22
2022-08-17T02:19:23.849Z,6.93
2022-08-17T02:21:54.090Z,6.90
2022-08-17T02:25:00.551Z,7.40
2022-08-17T02:27:15.266Z,6.30
2022-08-17T02:29:43.429Z,6.20
2022-08-17T02:32:25.302Z,6.73
2022-08-17T02:34:56.884Z,6.43
2022-08-17T02:37:25.556Z,6.80
2022-08-17T02:39:57.061Z,7.30
2022-08-17T02:42:31.493Z,6.83
2022-08-17T02:45:00.713Z,6.88
2022-08-17T02:47:29.089Z,7.00
2022-08-17T02:49:57.320Z,7.10
2022-08-17T02:52:53.640Z,6.47
2022-08-17T02:55:20.713Z,6.70
2022-08-17T02:57:49.500Z,6.10
2022-08-17T03:00:21.864Z,7.20
2022-08-17T03:02:50.914Z,6.93
2022-08-17T03:05:22.588Z,6.53
2022-08-17T03:07:50.792Z,6.38
2022-08-17T03:10:21.764Z,6.35
2022-08-17T03:12:50.340Z,6.57
2022-08-17T03:15:21.626Z,6.55
2022-08-17T03:17:50.102Z,6.50
2022-08-17T03:20:18.364Z,7.25
2022-08-17T03:22:53.649Z,6.90
2022-08-17T03:25:26.871Z,7.60
2022-08-17T03:27:56.737Z,6.90
2022-08-17T03:30:26.546Z,7.50
2022-08-17T03:32:56.799Z,7.03
2022-08-17T03:35:27.961Z,6.05
2022-08-17T03:38:00.337Z,7.53
2022-08-17T03:40:55.145Z,6.43
2022-08-17T03:43:21.360Z,7.05
2022-08-17T03:46:27.052Z,7.15
2022-08-17T03:49:13.148Z,6.93
2022-08-17T03:51:58.944Z,7.35
2022-08-17T03:54:44.609Z,7.63
2022-08-17T03:57:14.872Z,7.60
2022-08-17T03:59:43.140Z,7.30
2022-08-17T04:02:17.502Z,6.90
2022-08-17T04:04:45.984Z,6.80
2022-08-17T04:07:14.266Z,7.25
2022-08-17T04:09:42.944Z,7.00
2022-08-17T04:12:11.200Z,7.20
2022-08-17T04:14:53.521Z,7.57
2022-08-17T04:17:25.364Z,7.00
2022-08-17T04:19:53.883Z,8.02
2022-08-17T04:22:30.009Z,7.55
2022-08-17T04:25:03.275Z,7.78
2022-08-17T04:27:31.852Z,7.47
2022-08-17T04:30:01.659Z,7.50
2022-08-17T04:33:03.886Z,7.45
2022-08-17T04:35:23.933Z,7.28
2022-08-17T04:37:52.717Z,6.70
2022-08-17T04:40:39.901Z,8.00
2022-08-17T04:43:10.401Z,7.53
2022-08-17T04:45:54.995Z,8.63
2022-08-17T04:48:27.928Z,11.65
2022-08-17T04:51:06.984Z,8.95
2022-08-17T04:53:35.174Z,8.23
2022-08-17T04:56:03.573Z,8.82
2022-08-17T04:58:31.992Z,7.37
2022-08-17T05:01:01.593Z,7.60
2022-08-17T05:03:30.068Z,7.30
2022-08-17T05:05:58.244Z,6.17
2022-08-17T05:08:26.404Z,7.03
2022-08-17T05:10:54.864Z,6.80
2022-08-17T05:13:25.271Z,6.93
2022-08-17T05:15:56.413Z,6.50
2022-08-17T05:18:26.640Z,6.10
2022-08-17T05:20:54.877Z,6.37
2022-08-17T05:23:26.158Z,6.40
2022-08-17T05:25:56.421Z,6.73
2022-08-17T05:28:28.003Z,5.90
2022-08-17T05:31:00.457Z,6.90
2022-08-17T05:33:32.332Z,7.03
2022-08-17T05:36:02.161Z,6.57
2022-08-17T05:38:31.801Z,6.40
2022-08-17T05:41:01.402Z,5.90
2022-08-17T05:43:31.992Z,6.93
2022-08-17T05:46:06.215Z,6.00
2022-08-17T05:48:40.303Z,6.53
2022-08-17T05:51:29.314Z,6.20
2022-08-17T05:54:08.472Z,6.13
2022-08-17T05:56:55.822Z,5.27
2022-08-17T05:59:32.819Z,5.13
2022-08-17T06:02:07.430Z,5.33
2022-08-17T06:04:49.408Z,4.80
2022-08-17T06:07:25.211Z,4.50
2022-08-17T06:10:02.183Z,3.50
2022-08-17T06:12:41.099Z,3.87
2022-08-17T06:15:24.630Z,3.63
2022-08-17T06:17:56.303Z,3.83
2022-08-17T06:20:29.096Z,3.10
2022-08-17T06:23:05.990Z,4.30
2022-08-17T06:25:39.269Z,3.17
2022-08-17T06:28:13.857Z,3.50
2022-08-17T06:30:59.484Z,3.53
2022-08-17T06:33:35.181Z,3.73
2022-08-17T06:36:17.599Z,3.57
2022-08-17T06:38:58.782Z,4.13
2022-08-17T06:41:38.196Z,4.60
2022-08-17T06:44:43.168Z,3.80
2022-08-17T06:47:09.179Z,3.70
2022-08-17T06:49:45.867Z,3.43
2022-08-17T06:52:45.843Z,3.20
2022-08-17T06:55:18.092Z,3.07
2022-08-17T06:57:51.212Z,2.70
2022-08-17T07:00:22.356Z,2.70
2022-08-17T07:02:57.873Z,3.80
2022-08-17T07:05:28.623Z,3.70
2022-08-17T07:08:05.721Z,3.63
2022-08-17T07:10:40.267Z,3.13
2022-08-17T07:13:37.615Z,4.10
2022-08-17T07:16:17.669Z,4.13
2022-08-17T07:18:46.046Z,4.43
2022-08-17T07:21:26.507Z,4.50
2022-08-17T07:24:11.367Z,4.30
2022-08-17T07:27:10.426Z,3.77
2022-08-17T07:29:41.707Z,3.63
2022-08-17T07:32:12.271Z,4.10
2022-08-17T07:35:11.425Z,4.40
2022-08-17T07:37:41.465Z,4.50
2022-08-17T07:40:21.822Z,2.80
2022-08-17T07:43:21.990Z,3.00
2022-08-17T07:46:39.825Z,2.60
2022-08-17T07:49:33.951Z,2.50
2022-08-17T07:52:26.034Z,2.37
2022-08-17T07:54:53.809Z,2.10
2022-08-17T07:57:33.788Z,1.90
2022-08-17T08:00:16.317Z,1.90
2022-08-17T08:02:47.948Z,2.20
2022-08-17T08:05:46.695Z,2.00
2022-08-17T08:08:29.180Z,1.60
2022-08-17T08:11:05.527Z,1.63
2022-08-17T08:13:40.508Z,1.70
2022-08-17T08:16:22.669Z,1.53
2022-08-17T08:18:56.832Z,1.60
2022-08-17T08:21:35.979Z,1.80
2022-08-17T08:24:17.298Z,1.50
2022-08-17T08:26:50.887Z,1.67
2022-08-17T08:29:30.277Z,1.50
2022-08-17T08:32:07.636Z,1.60
2022-08-17T08:35:02.268Z,1.60
2022-08-17T08:37:48.443Z,1.80
2022-08-17T08:40:38.407Z,1.50
2022-08-17T08:43:20.462Z,1.73
2022-08-17T08:45:56.710Z,1.23
2022-08-17T08:48:57.834Z,1.40
2022-08-17T08:51:37.308Z,1.27
2022-08-17T08:54:16.679Z,1.33
2022-08-17T08:57:23.187Z,1.20
2022-08-17T09:00:07.877Z,1.43
2022-08-17T09:02:55.079Z,1.67
2022-08-17T09:05:37.851Z,1.47
2022-08-17T09:08:15.127Z,1.60
2022-08-17T09:10:54.949Z,2.00
2022-08-17T09:13:30.392Z,1.80
2022-08-17T09:16:04.659Z,2.00
2022-08-17T09:18:59.142Z,2.53
2022-08-17T09:21:33.808Z,2.57
2022-08-17T09:24:12.657Z,2.10
2022-08-17T09:26:46.418Z,1.70
2022-08-17T09:29:17.679Z,1.57
2022-08-17T09:31:53.396Z,2.00
2022-08-17T09:34:33.304Z,1.80
2022-08-17T09:37:17.269Z,1.97
2022-08-17T09:39:52.527Z,1.50
2022-08-17T09:42:25.800Z,1.50
2022-08-17T09:45:02.582Z,1.40
2022-08-17T09:47:36.961Z,1.47
2022-08-17T09:50:14.082Z,1.60
2022-08-17T09:52:43.356Z,1.60
2022-08-17T09:55:11.670Z,1.50
2022-08-17T09:57:53.514Z,1.60
2022-08-17T10:00:25.152Z,1.50
2022-08-17T10:03:28.326Z,1.83
2022-08-17T10:06:06.606Z,1.47
2022-08-17T10:08:43.313Z,2.70
2022-08-17T10:11:48.295Z,1.70
2022-08-17T10:14:37.553Z,2.10
2022-08-17T10:17:18.665Z,2.13
2022-08-17T10:19:54.144Z,2.17
2022-08-17T10:22:53.052Z,2.40
2022-08-17T10:25:53.958Z,1.73
2022-08-17T10:28:29.068Z,2.30
2022-08-17T10:31:34.367Z,2.07
2022-08-17T10:34:06.468Z,2.07
2022-08-17T10:36:48.346Z,2.00
2022-08-17T10:39:26.678Z,2.27
2022-08-17T10:42:00.607Z,2.30
2022-08-17T10:44:42.414Z,2.00
2022-08-17T10:47:13.775Z,2.50
2022-08-17T10:49:49.654Z,2.67
2022-08-17T10:52:52.258Z,2.50
2022-08-17T10:55:22.090Z,2.90
2022-08-17T10:57:51.519Z,2.70
2022-08-17T11:01:11.428Z,2.20
2022-08-17T11:03:54.863Z,2.43
2022-08-17T11:06:33.604Z,2.57
2022-08-17T11:09:21.017Z,2.60
2022-08-17T11:12:10.072Z,2.37
2022-08-17T11:14:51.640Z,2.47
2022-08-17T11:17:42.613Z,2.40
2022-08-17T11:20:26.164Z,2.07
2022-08-17T11:23:29.388Z,2.20
2022-08-17T11:26:04.014Z,2.77
2022-08-17T11:28:46.095Z,2.53
2022-08-17T11:31:38.952Z,2.93
2022-08-17T11:34:15.291Z,2.37
2022-08-17T11:37:16.668Z,2.20
2022-08-17T11:40:14.211Z,2.03
2022-08-17T11:43:04.447Z,2.07
2022-08-17T11:45:52.572Z,2.17
2022-08-17T11:48:46.104Z,1.90
2022-08-17T11:51:34.089Z,2.00
2022-08-17T11:57:02.271Z,1.67
2022-08-17T11:59:59.826Z,1.70
2022-08-17T12:02:38.979Z,1.63
2022-08-17T12:05:33.274Z,1.57
2022-08-17T12:08:12.853Z,1.50
2022-08-17T12:10:52.837Z,1.70
2022-08-17T12:13:23.688Z,1.30
2022-08-17T12:15:59.292Z,1.60
2022-08-17T12:18:31.729Z,1.30
2022-08-17T12:21:21.455Z,1.67
2022-08-17T12:23:57.083Z,1.50
2022-08-17T12:26:30.411Z,1.27
2022-08-17T12:29:02.308Z,1.63
2022-08-17T12:31:43.386Z,1.67
2022-08-17T12:34:18.988Z,1.90
2022-08-17T12:36:47.926Z,1.77
2022-08-17T12:39:21.602Z,1.90
2022-08-17T12:42:02.187Z,1.83
2022-08-17T12:44:33.256Z,1.83
2022-08-17T12:47:07.774Z,2.20
2022-08-17T12:49:39.322Z,2.20
2022-08-17T12:52:13.515Z,1.67
2022-08-17T12:54:52.408Z,1.63
2022-08-17T12:57:24.459Z,1.83
2022-08-17T12:59:58.465Z,1.73
2022-08-17T13:02:39.151Z,1.83
2022-08-17T13:05:19.119Z,1.90
2022-08-17T13:07:48.321Z,2.57
2022-08-17T13:10:28.625Z,1.67
2022-08-17T13:13:04.759Z,2.30
2022-08-17T13:15:44.849Z,2.60
2022-08-17T13:18:43.344Z,2.20
2022-08-17T13:21:26.965Z,2.20
2022-08-17T13:24:00.545Z,2.20
2022-08-17T13:26:33.989Z,2.43
2022-08-17T13:29:03.687Z,1.97
2022-08-17T13:31:52.012Z,2.10
2022-08-17T13:34:38.680Z,2.20
2022-08-17T13:37:33.026Z,1.77
2022-08-17T13:40:23.651Z,2.03
2022-08-17T13:42:54.343Z,1.63
2022-08-17T13:45:43.496Z,1.80
2022-08-17T13:48:21.809Z,1.80
2022-08-17T13:51:06.728Z,1.90
2022-08-17T13:54:01.561Z,2.00
2022-08-17T13:56:47.819Z,1.70
2022-08-17T13:59:36.370Z,1.80
2022-08-17T14:02:14.966Z,1.90
2022-08-17T14:04:44.605Z,1.60
2022-08-17T14:07:28.192Z,2.10
2022-08-17T14:10:01.178Z,2.17
2022-08-17T14:12:32.947Z,1.57
2022-08-17T14:15:01.380Z,2.00
2022-08-17T14:17:34.958Z,1.67
2022-08-17T14:20:09.696Z,2.17
2022-08-17T14:22:40.491Z,1.70
2022-08-17T14:25:12.485Z,1.70
2022-08-17T14:27:51.828Z,1.90
2022-08-17T14:30:23.131Z,2.17
2022-08-17T14:32:52.113Z,1.90
2022-08-17T14:35:23.172Z,1.93
2022-08-17T14:37:51.874Z,1.73
2022-08-17T14:40:22.668Z,1.73
2022-08-17T14:42:51.223Z,1.60
2022-08-17T14:45:32.075Z,1.70
2022-08-17T14:48:04.295Z,1.73
2022-08-17T14:50:35.470Z,1.70
2022-08-17T14:53:05.205Z,1.90
2022-08-17T14:55:35.093Z,1.60
2022-08-17T14:58:04.351Z,2.00
2022-08-17T15:00:33.145Z,1.77
2022-08-17T15:03:03.116Z,1.67
2022-08-17T15:05:34.589Z,1.70
2022-08-17T15:08:03.656Z,1.80
2022-08-17T15:10:32.528Z,1.70
2022-08-17T15:13:02.130Z,1.93
2022-08-17T15:15:30.936Z,2.13
2022-08-17T15:17:59.938Z,1.73
2022-08-17T15:20:30.221Z,1.80
2022-08-17T15:22:59.628Z,2.07
2022-08-17T15:25:30.191Z,2.20
2022-08-17T15:27:58.568Z,1.90
2022-08-17T15:30:28.751Z,2.00
2022-08-17T15:32:58.661Z,1.93
2022-08-17T15:35:29.827Z,2.00
2022-08-17T15:38:09.859Z,1.93
2022-08-17T15:40:41.565Z,1.90
2022-08-17T15:43:11.951Z,1.83
2022-08-17T15:45:42.480Z,1.93
2022-08-17T15:48:14.192Z,1.80
2022-08-17T15:50:42.783Z,2.27
2022-08-17T15:53:10.909Z,2.03
2022-08-17T15:55:43.631Z,2.10
2022-08-17T15:58:11.779Z,2.63
2022-08-17T16:00:54.009Z,2.20
2022-08-17T16:04:01.452Z,2.50
2022-08-17T16:06:18.967Z,1.70
2022-08-17T16:08:47.364Z,1.90
2022-08-17T16:11:17.492Z,2.00
2022-08-17T16:13:47.311Z,1.77
2022-08-17T16:16:24.742Z,1.67
2022-08-17T16:18:56.249Z,1.83
2022-08-17T16:21:27.252Z,2.00
2022-08-17T16:23:58.472Z,1.80
2022-08-17T16:26:26.685Z,2.30
2022-08-17T16:28:55.886Z,1.80
2022-08-17T16:31:25.901Z,2.77
2022-08-17T16:34:16.147Z,2.43
2022-08-17T16:36:42.578Z,2.10
2022-08-17T16:39:24.566Z,2.10
2022-08-17T16:41:52.807Z,2.30
2022-08-17T16:44:22.488Z,2.23
2022-08-17T16:46:52.229Z,2.20
2022-08-17T16:49:35.358Z,2.30
2022-08-17T16:52:10.089Z,2.40
2022-08-17T16:54:40.615Z,2.30
2022-08-17T16:57:08.758Z,2.60
2022-08-17T16:59:40.708Z,2.47
2022-08-17T17:02:15.708Z,2.73
2022-08-17T17:04:50.682Z,2.20
2022-08-17T17:07:42.662Z,2.33
2022-08-17T17:10:15.368Z,2.10
2022-08-17T17:13:01.091Z,2.43
2022-08-17T17:15:41.477Z,2.57
2022-08-17T17:18:14.796Z,2.80
2022-08-17T17:20:50.929Z,2.50
2022-08-17T17:23:35.052Z,3.00
2022-08-17T17:26:23.746Z,2.63
2022-08-17T17:29:11.822Z,2.70
2022-08-17T17:31:46.304Z,2.57
2022-08-17T17:34:18.465Z,2.67
2022-08-17T17:36:51.560Z,3.03
2022-08-17T17:39:22.959Z,2.93
2022-08-17T17:41:55.537Z,3.50
2022-08-17T17:44:28.661Z,3.40
2022-08-17T17:47:00.787Z,3.47
2022-08-17T17:49:34.229Z,4.33
2022-08-17T17:52:13.335Z,5.30
2022-08-17T17:55:04.199Z,8.20
2022-08-17T17:57:47.032Z,4.60
2022-08-17T18:00:18.348Z,7.10
2022-08-17T18:03:11.175Z,5.23
2022-08-17T18:06:05.115Z,6.90
2022-08-17T18:09:01.910Z,4.53
2022-08-17T18:12:04.218Z,4.70
2022-08-17T18:14:51.988Z,4.93
2022-08-17T18:17:20.401Z,5.40
2022-08-17T18:19:48.670Z,5.90
2022-08-17T18:22:20.870Z,5.67
2022-08-17T18:24:54.720Z,4.40
2022-08-17T18:27:35.461Z,4.30
2022-08-17T18:30:23.816Z,4.17
2022-08-17T18:32:52.048Z,3.60
2022-08-17T18:35:35.197Z,3.40
2022-08-17T18:38:23.639Z,3.90
2022-08-17T18:41:05.459Z,3.70
2022-08-17T18:43:44.495Z,3.73
2022-08-17T18:46:29.699Z,3.43
2022-08-17T18:49:00.189Z,3.53
2022-08-17T18:51:40.429Z,3.70
2022-08-17T18:54:23.952Z,4.20
2022-08-17T18:56:54.658Z,3.67
2022-08-17T18:59:30.257Z,4.20
2022-08-17T19:02:44.092Z,4.37
2022-08-17T19:05:27.138Z,4.40
2022-08-17T19:07:55.412Z,4.60
2022-08-17T19:10:46.261Z,4.40
2022-08-17T19:13:24.376Z,4.57
2022-08-17T19:16:10.098Z,3.90
2022-08-17T19:18:46.472Z,4.77
2022-08-17T19:21:21.265Z,4.63
2022-08-17T19:23:55.204Z,4.07
2022-08-17T19:26:50.598Z,4.30
2022-08-17T19:29:22.124Z,3.83
2022-08-17T19:31:51.094Z,4.20
2022-08-17T19:34:29.856Z,4.60
2022-08-17T19:37:06.944Z,6.57
2022-08-17T19:39:41.659Z,5.17
2022-08-17T19:42:15.187Z,4.40
2022-08-17T19:44:54.585Z,4.83
2022-08-17T19:47:53.875Z,4.70
2022-08-17T19:50:31.159Z,4.40
2022-08-17T19:53:05.899Z,4.90
2022-08-17T19:55:47.702Z,4.60
2022-08-17T19:58:29.297Z,4.47
2022-08-17T20:00:57.637Z,4.70
2022-08-17T20:03:32.819Z,5.00
2022-08-17T20:06:18.327Z,5.00
2022-08-17T20:08:55.709Z,4.63
2022-08-17T20:11:30.095Z,4.70
2022-08-17T20:14:07.928Z,4.20
2022-08-17T20:16:36.838Z,4.90
2022-08-17T20:19:08.447Z,4.63
2022-08-17T20:21:43.060Z,4.67
2022-08-17T20:24:21.048Z,4.80
2022-08-17T20:26:57.870Z,4.57
2022-08-17T20:29:55.278Z,4.40
2022-08-17T20:32:28.321Z,4.93
2022-08-17T20:35:22.407Z,4.60
2022-08-17T20:37:57.751Z,4.93
2022-08-17T20:41:07.760Z,5.30
2022-08-17T20:44:04.892Z,5.30
2022-08-17T20:47:02.272Z,4.70
2022-08-17T20:49:49.016Z,5.00
2022-08-17T20:52:32.869Z,4.70
2022-08-17T20:55:02.338Z,5.40
2022-08-17T20:57:49.759Z,4.70
2022-08-17T21:00:43.284Z,4.90
2022-08-17T21:03:51.192Z,5.00
2022-08-17T21:06:24.698Z,4.90
2022-08-17T21:08:58.013Z,5.03
2022-08-17T21:12:04.454Z,5.00
2022-08-17T21:14:54.265Z,5.00
2022-08-17T21:17:40.233Z,5.10
2022-08-17T21:20:24.116Z,5.00
2022-08-17T21:23:18.080Z,4.53
2022-08-17T21:26:02.956Z,4.33
2022-08-17T21:29:01.117Z,5.40
2022-08-17T21:31:34.612Z,5.20
2022-08-17T21:34:26.536Z,4.73
2022-08-17T21:36:56.910Z,5.17
2022-08-17T21:39:40.544Z,5.00
2022-08-17T21:42:09.418Z,5.50
2022-08-17T21:44:48.475Z,4.90
2022-08-17T21:47:21.540Z,5.07
2022-08-17T21:49:49.892Z,5.33
2022-08-17T21:52:20.026Z,5.10
2022-08-17T21:54:54.665Z,5.23
2022-08-17T21:57:27.382Z,5.80
2022-08-17T21:59:58.665Z,5.60
2022-08-17T22:02:32.067Z,5.60
2022-08-17T22:05:04.020Z,6.07
2022-08-17T22:07:39.286Z,6.20
2022-08-17T22:10:30.522Z,5.83
2022-08-17T22:13:16.798Z,6.30
2022-08-17T22:15:48.156Z,6.80
2022-08-17T22:18:28.882Z,6.33
2022-08-17T22:20:59.493Z,5.77
2022-08-17T22:23:54.736Z,6.30
2022-08-17T22:26:27.816Z,6.60
2022-08-17T22:28:58.614Z,6.60
2022-08-17T22:31:31.535Z,6.00
2022-08-17T22:34:13.673Z,6.97
2022-08-17T22:36:42.940Z,6.83
2022-08-17T22:39:41.550Z,6.50
2022-08-17T22:42:16.616Z,6.60
2022-08-17T22:44:51.207Z,6.20
2022-08-17T22:47:32.936Z,7.93
2022-08-17T22:50:04.389Z,6.87
2022-08-17T22:52:35.357Z,7.07
2022-08-17T22:55:25.943Z,7.37
2022-08-17T22:58:13.104Z,7.50
2022-08-17T23:00:43.356Z,7.13
2022-08-17T23:03:18.027Z,7.17
2022-08-17T23:05:49.299Z,7.27
2022-08-17T23:08:21.419Z,8.40
2022-08-17T23:10:50.266Z,7.50
2022-08-17T23:13:21.313Z,7.40
2022-08-17T23:15:50.989Z,7.53
2022-08-17T23:18:19.557Z,7.00
2022-08-17T23:20:47.855Z,7.70
2022-08-17T23:23:18.809Z,7.60
2022-08-17T23:25:50.020Z,7.00
2022-08-17T23:28:19.904Z,7.00
2022-08-17T23:30:48.365Z,7.43
2022-08-17T23:33:21.337Z,7.60
2022-08-17T23:35:49.648Z,7.70
2022-08-17T23:38:17.809Z,7.93
2022-08-17T23:40:46.041Z,7.50
2022-08-17T23:43:24.392Z,8.10
2022-08-17T23:45:56.179Z,8.40
2022-08-17T23:48:35.173Z,7.80
2022-08-17T23:51:11.697Z,7.50
2022-08-17T23:53:44.105Z,7.63
2022-08-17T23:56:12.397Z,7.80
2022-08-17T23:58:42.200Z,7.27
